sensor_id;sensor_type;location;lat;lon;timestamp;pressure;altitude;pressure_sealevel;temperature;humidity
19286;BME280;9776;50.798;6.430;2023-05-11T00:01:41;100050.34;;;15.10;65.85
19286;BME280;9776;50.798;6.430;2023-05-11T00:04:07;100059.34;;;15.09;65.92
19286;BME280;9776;50.798;6.430;2023-05-11T00:06:34;100061.34;;;15.07;66.20
19286;BME280;9776;50.798;6.430;2023-05-11T00:09:00;100055.28;;;15.13;66.28
19286;BME280;9776;50.798;6.430;2023-05-11T00:11:27;100055.66;;;15.10;65.91
19286;BME280;9776;50.798;6.430;2023-05-11T00:13:55;100055.28;;;15.13;66.16
19286;BME280;9776;50.798;6.430;2023-05-11T00:16:21;100057.69;;;15.08;65.95
19286;BME280;9776;50.798;6.430;2023-05-11T00:18:48;100054.41;;;15.06;65.86
19286;BME280;9776;50.798;6.430;2023-05-11T00:21:15;100049.00;;;14.99;66.05
19286;BME280;9776;50.798;6.430;2023-05-11T00:23:41;100039.91;;;14.94;65.92
19286;BME280;9776;50.798;6.430;2023-05-11T00:26:08;100038.00;;;14.88;65.90
19286;BME280;9776;50.798;6.430;2023-05-11T00:28:35;100033.69;;;14.87;66.05
19286;BME280;9776;50.798;6.430;2023-05-11T00:31:03;100039.34;;;14.84;66.19
19286;BME280;9776;50.798;6.430;2023-05-11T00:33:30;100035.69;;;14.85;65.94
19286;BME280;9776;50.798;6.430;2023-05-11T00:35:56;100037.63;;;14.91;65.98
19286;BME280;9776;50.798;6.430;2023-05-11T00:38:23;100032.94;;;14.93;66.15
19286;BME280;9776;50.798;6.430;2023-05-11T00:40:50;100030.19;;;15.01;66.12
19286;BME280;9776;50.798;6.430;2023-05-11T00:43:16;100031.00;;;15.01;66.09
19286;BME280;9776;50.798;6.430;2023-05-11T00:45:43;100024.97;;;15.07;66.22
19286;BME280;9776;50.798;6.430;2023-05-11T00:48:13;100021.03;;;15.03;66.81
19286;BME280;9776;50.798;6.430;2023-05-11T00:50:40;100016.16;;;14.92;66.97
19286;BME280;9776;50.798;6.430;2023-05-11T00:53:07;100011.16;;;14.83;67.59
19286;BME280;9776;50.798;6.430;2023-05-11T00:55:35;100020.59;;;14.70;67.78
19286;BME280;9776;50.798;6.430;2023-05-11T00:58:02;100014.34;;;14.63;68.13
19286;BME280;9776;50.798;6.430;2023-05-11T01:00:29;100013.63;;;14.55;68.77
19286;BME280;9776;50.798;6.430;2023-05-11T01:02:56;100016.38;;;14.47;68.81
19286;BME280;9776;50.798;6.430;2023-05-11T01:05:31;100020.78;;;14.40;69.09
19286;BME280;9776;50.798;6.430;2023-05-11T01:08:05;100015.81;;;14.37;69.46
19286;BME280;9776;50.798;6.430;2023-05-11T01:10:37;100015.47;;;14.32;69.67
19286;BME280;9776;50.798;6.430;2023-05-11T01:13:25;100017.34;;;14.31;69.40
19286;BME280;9776;50.798;6.430;2023-05-11T01:15:53;100021.13;;;14.37;69.36
19286;BME280;9776;50.798;6.430;2023-05-11T01:18:25;100028.38;;;14.43;69.39
19286;BME280;9776;50.798;6.430;2023-05-11T01:20:59;100026.72;;;14.42;69.31
19286;BME280;9776;50.798;6.430;2023-05-11T01:23:42;100025.13;;;14.33;69.06
19286;BME280;9776;50.798;6.430;2023-05-11T01:26:27;100023.63;;;14.30;69.27
19286;BME280;9776;50.798;6.430;2023-05-11T01:29:09;100019.69;;;14.26;69.53
19286;BME280;9776;50.798;6.430;2023-05-11T01:31:41;100028.84;;;14.23;69.67
19286;BME280;9776;50.798;6.430;2023-05-11T01:34:13;100023.38;;;14.25;69.37
19286;BME280;9776;50.798;6.430;2023-05-11T01:36:48;100018.06;;;14.25;69.28
19286;BME280;9776;50.798;6.430;2023-05-11T01:39:21;100018.50;;;14.29;69.09
19286;BME280;9776;50.798;6.430;2023-05-11T01:41:52;100019.00;;;14.32;68.95
19286;BME280;9776;50.798;6.430;2023-05-11T01:44:21;100016.03;;;14.27;69.37
19286;BME280;9776;50.798;6.430;2023-05-11T01:46:51;100028.84;;;14.23;69.43
19286;BME280;9776;50.798;6.430;2023-05-11T01:49:18;100020.41;;;14.20;69.17
19286;BME280;9776;50.798;6.430;2023-05-11T01:51:46;100028.28;;;14.13;69.25
19286;BME280;9776;50.798;6.430;2023-05-11T01:54:14;100023.22;;;14.04;69.69
19286;BME280;9776;50.798;6.430;2023-05-11T01:56:43;100022.94;;;13.99;69.86
19286;BME280;9776;50.798;6.430;2023-05-11T01:59:10;100018.84;;;13.88;69.92
19286;BME280;9776;50.798;6.430;2023-05-11T02:01:39;100027.56;;;13.82;69.91
19286;BME280;9776;50.798;6.430;2023-05-11T02:04:08;100035.19;;;13.77;70.11
19286;BME280;9776;50.798;6.430;2023-05-11T02:06:37;100023.81;;;13.69;70.04
19286;BME280;9776;50.798;6.430;2023-05-11T02:09:06;100033.59;;;13.68;69.92
19286;BME280;9776;50.798;6.430;2023-05-11T02:11:34;100033.94;;;13.65;70.28
19286;BME280;9776;50.798;6.430;2023-05-11T02:14:04;100040.13;;;13.57;70.52
19286;BME280;9776;50.798;6.430;2023-05-11T02:16:32;100040.13;;;13.57;70.19
19286;BME280;9776;50.798;6.430;2023-05-11T02:19:01;100041.47;;;13.53;70.39
19286;BME280;9776;50.798;6.430;2023-05-11T02:21:30;100037.84;;;13.54;70.35
19286;BME280;9776;50.798;6.430;2023-05-11T02:23:59;100031.25;;;13.50;70.28
19286;BME280;9776;50.798;6.430;2023-05-11T02:26:26;100032.59;;;13.46;70.31
19286;BME280;9776;50.798;6.430;2023-05-11T02:28:53;100026.66;;;13.44;70.52
19286;BME280;9776;50.798;6.430;2023-05-11T02:31:24;100029.75;;;13.48;70.50
19286;BME280;9776;50.798;6.430;2023-05-11T02:33:55;100026.47;;;13.46;70.45
19286;BME280;9776;50.798;6.430;2023-05-11T02:36:28;100028.28;;;13.45;70.22
19286;BME280;9776;50.798;6.430;2023-05-11T02:39:01;100030.59;;;13.48;70.33
19286;BME280;9776;50.798;6.430;2023-05-11T02:41:30;100026.94;;;13.49;70.20
19286;BME280;9776;50.798;6.430;2023-05-11T02:44:01;100029.75;;;13.48;69.78
19286;BME280;9776;50.798;6.430;2023-05-11T02:46:32;100031.59;;;13.47;69.77
19286;BME280;9776;50.798;6.430;2023-05-11T02:49:01;100036.91;;;13.47;69.93
19286;BME280;9776;50.798;6.430;2023-05-11T02:51:33;100024.97;;;13.43;69.83
19286;BME280;9776;50.798;6.430;2023-05-11T02:54:02;100028.81;;;13.41;70.03
19286;BME280;9776;50.798;6.430;2023-05-11T02:56:31;100031.63;;;13.39;69.84
19286;BME280;9776;50.798;6.430;2023-05-11T02:58:59;100028.03;;;13.32;70.14
19286;BME280;9776;50.798;6.430;2023-05-11T03:01:26;100024.75;;;13.22;70.56
19286;BME280;9776;50.798;6.430;2023-05-11T03:03:53;100024.47;;;13.17;70.42
19286;BME280;9776;50.798;6.430;2023-05-11T03:06:20;100033.59;;;13.15;70.59
19286;BME280;9776;50.798;6.430;2023-05-11T03:08:48;100027.94;;;13.18;70.60
19286;BME280;9776;50.798;6.430;2023-05-11T03:11:15;100029.41;;;13.20;70.55
19286;BME280;9776;50.798;6.430;2023-05-11T03:13:43;100024.75;;;13.22;70.28
19286;BME280;9776;50.798;6.430;2023-05-11T03:16:10;100030.06;;;13.22;70.17
19286;BME280;9776;50.798;6.430;2023-05-11T03:18:37;100027.59;;;13.21;70.08
19286;BME280;9776;50.798;6.430;2023-05-11T03:21:05;100021.97;;;13.24;70.12
19286;BME280;9776;50.798;6.430;2023-05-11T03:23:34;100033.38;;;13.24;69.88
19286;BME280;9776;50.798;6.430;2023-05-11T03:26:03;100029.72;;;13.25;69.69
19286;BME280;9776;50.798;6.430;2023-05-11T03:28:31;100034.19;;;13.25;69.98
19286;BME280;9776;50.798;6.430;2023-05-11T03:30:59;100026.44;;;13.23;69.59
19286;BME280;9776;50.798;6.430;2023-05-11T03:33:26;100036.19;;;13.23;69.71
19286;BME280;9776;50.798;6.430;2023-05-11T03:35:53;100031.25;;;13.20;69.52
19286;BME280;9776;50.798;6.430;2023-05-11T03:38:21;100032.41;;;13.17;69.39
19286;BME280;9776;50.798;6.430;2023-05-11T03:40:51;100031.09;;;13.13;69.76
19286;BME280;9776;50.798;6.430;2023-05-11T03:43:20;100028.47;;;13.05;70.00
19286;BME280;9776;50.798;6.430;2023-05-11T03:45:47;100031.16;;;12.97;70.56
19286;BME280;9776;50.798;6.430;2023-05-11T03:48:17;100024.72;;;12.91;70.69
19286;BME280;9776;50.798;6.430;2023-05-11T03:50:44;100027.84;;;12.95;70.59
19286;BME280;9776;50.798;6.430;2023-05-11T03:53:12;100021.88;;;12.93;70.44
19286;BME280;9776;50.798;6.430;2023-05-11T03:55:39;100018.88;;;12.96;70.50
19286;BME280;9776;50.798;6.430;2023-05-11T03:58:07;100025.69;;;12.98;70.68
19286;BME280;9776;50.798;6.430;2023-05-11T04:00:38;100022.03;;;12.99;70.31
19286;BME280;9776;50.798;6.430;2023-05-11T04:03:05;100028.16;;;13.00;70.31
19286;BME280;9776;50.798;6.430;2023-05-11T04:05:32;100028.16;;;13.00;70.55
19286;BME280;9776;50.798;6.430;2023-05-11T04:07:59;100027.31;;;12.99;70.42
19286;BME280;9776;50.798;6.430;2023-05-11T04:10:26;100025.16;;;13.03;70.24
19286;BME280;9776;50.798;6.430;2023-05-11T04:12:52;100027.31;;;12.99;70.55
19286;BME280;9776;50.798;6.430;2023-05-11T04:15:19;100029.81;;;12.93;70.95
19286;BME280;9776;50.798;6.430;2023-05-11T04:17:47;100028.00;;;12.93;70.98
19286;BME280;9776;50.798;6.430;2023-05-11T04:20:14;100032.03;;;12.89;70.99
19286;BME280;9776;50.798;6.430;2023-05-11T04:22:40;100029.03;;;12.84;71.12
19286;BME280;9776;50.798;6.430;2023-05-11T04:25:08;100037.81;;;12.85;71.30
19286;BME280;9776;50.798;6.430;2023-05-11T04:27:34;100037.81;;;12.85;71.34
19286;BME280;9776;50.798;6.430;2023-05-11T04:30:01;100049.72;;;12.89;71.26
19286;BME280;9776;50.798;6.430;2023-05-11T04:32:28;100050.03;;;12.94;71.20
19286;BME280;9776;50.798;6.430;2023-05-11T04:34:56;100045.22;;;12.97;71.05
19286;BME280;9776;50.798;6.430;2023-05-11T04:37:22;100053.13;;;13.14;70.95
19286;BME280;9776;50.798;6.430;2023-05-11T04:39:49;100056.06;;;13.27;70.70
19286;BME280;9776;50.798;6.430;2023-05-11T04:42:15;100049.03;;;13.42;70.51
19286;BME280;9776;50.798;6.430;2023-05-11T04:44:42;100049.44;;;13.53;70.28
19286;BME280;9776;50.798;6.430;2023-05-11T04:47:09;100059.81;;;13.63;70.11
19286;BME280;9776;50.798;6.430;2023-05-11T04:49:35;100051.47;;;13.74;70.12
19286;BME280;9776;50.798;6.430;2023-05-11T04:52:05;100059.47;;;13.89;69.50
19286;BME280;9776;50.798;6.430;2023-05-11T04:54:31;100052.94;;;13.99;69.46
19286;BME280;9776;50.798;6.430;2023-05-11T04:56:58;100053.00;;;14.14;69.29
19286;BME280;9776;50.798;6.430;2023-05-11T04:59:24;100059.50;;;14.26;69.41
19286;BME280;9776;50.798;6.430;2023-05-11T05:01:51;100058.31;;;14.37;69.27
19286;BME280;9776;50.798;6.430;2023-05-11T05:04:18;100055.00;;;14.49;69.02
19286;BME280;9776;50.798;6.430;2023-05-11T05:06:44;100057.50;;;14.65;68.64
19286;BME280;9776;50.798;6.430;2023-05-11T05:09:12;100058.78;;;14.69;68.36
19286;BME280;9776;50.798;6.430;2023-05-11T05:11:39;100053.81;;;14.66;68.73
19286;BME280;9776;50.798;6.430;2023-05-11T05:14:05;100064.56;;;14.73;68.62
19286;BME280;9776;50.798;6.430;2023-05-11T05:16:32;100066.13;;;14.82;68.34
19286;BME280;9776;50.798;6.430;2023-05-11T05:18:59;100067.22;;;14.88;68.08
19286;BME280;9776;50.798;6.430;2023-05-11T05:21:25;100075.56;;;14.99;68.19
19286;BME280;9776;50.798;6.430;2023-05-11T05:23:52;100070.34;;;15.06;67.93
19286;BME280;9776;50.798;6.430;2023-05-11T05:26:20;100074.09;;;15.11;67.91
19286;BME280;9776;50.798;6.430;2023-05-11T05:28:47;100081.13;;;15.19;67.34
19286;BME280;9776;50.798;6.430;2023-05-11T05:31:13;100079.50;;;15.18;67.52
19286;BME280;9776;50.798;6.430;2023-05-11T05:33:40;100087.47;;;15.18;67.48
19286;BME280;9776;50.798;6.430;2023-05-11T05:36:07;100090.03;;;15.11;67.76
19286;BME280;9776;50.798;6.430;2023-05-11T05:38:33;100100.59;;;15.05;67.91
19286;BME280;9776;50.798;6.430;2023-05-11T05:41:00;100092.59;;;15.05;68.13
19286;BME280;9776;50.798;6.430;2023-05-11T05:43:28;100102.50;;;15.11;68.01
19286;BME280;9776;50.798;6.430;2023-05-11T05:45:55;100104.91;;;15.06;67.90
19286;BME280;9776;50.798;6.430;2023-05-11T05:48:22;100103.50;;;15.10;68.19
19286;BME280;9776;50.798;6.430;2023-05-11T05:50:48;100102.78;;;15.16;67.69
19286;BME280;9776;50.798;6.430;2023-05-11T05:53:15;100110.13;;;15.14;67.79
19286;BME280;9776;50.798;6.430;2023-05-11T05:55:42;100115.53;;;15.20;67.68
19286;BME280;9776;50.798;6.430;2023-05-11T05:58:08;100117.63;;;15.25;67.63
19286;BME280;9776;50.798;6.430;2023-05-11T06:00:37;100116.25;;;15.29;67.64
19286;BME280;9776;50.798;6.430;2023-05-11T06:03:03;100113.88;;;15.34;67.61
19286;BME280;9776;50.798;6.430;2023-05-11T06:05:30;100114.13;;;15.39;67.44
19286;BME280;9776;50.798;6.430;2023-05-11T06:07:56;100110.47;;;15.40;67.44
19286;BME280;9776;50.798;6.430;2023-05-11T06:10:23;100117.69;;;15.46;66.97
19286;BME280;9776;50.798;6.430;2023-05-11T06:12:50;100112.38;;;15.46;67.15
19286;BME280;9776;50.798;6.430;2023-05-11T06:15:16;100115.69;;;15.48;67.25
19286;BME280;9776;50.798;6.430;2023-05-11T06:17:44;100117.25;;;15.57;67.10
19286;BME280;9776;50.798;6.430;2023-05-11T06:20:11;100116.13;;;15.66;66.85
19286;BME280;9776;50.798;6.430;2023-05-11T06:22:38;100112.06;;;15.70;66.39
19286;BME280;9776;50.798;6.430;2023-05-11T06:25:05;100115.66;;;15.77;66.25
19286;BME280;9776;50.798;6.430;2023-05-11T06:27:32;100112.22;;;15.83;66.25
19286;BME280;9776;50.798;6.430;2023-05-11T06:29:59;100115.06;;;15.82;66.42
19286;BME280;9776;50.798;6.430;2023-05-11T06:32:25;100113.25;;;15.82;66.11
19286;BME280;9776;50.798;6.430;2023-05-11T06:34:53;100115.91;;;15.82;65.94
19286;BME280;9776;50.798;6.430;2023-05-11T06:37:20;100114.78;;;15.92;65.99
19286;BME280;9776;50.798;6.430;2023-05-11T06:39:46;100108.31;;;16.01;65.61
19286;BME280;9776;50.798;6.430;2023-05-11T06:42:13;100114.41;;;16.16;65.24
19286;BME280;9776;50.798;6.430;2023-05-11T06:44:40;100118.31;;;16.20;64.76
19286;BME280;9776;50.798;6.430;2023-05-11T06:47:07;100113.25;;;16.25;64.87
19286;BME280;9776;50.798;6.430;2023-05-11T06:49:33;100115.41;;;16.36;64.51
19286;BME280;9776;50.798;6.430;2023-05-11T06:52:01;100117.63;;;16.32;64.76
19286;BME280;9776;50.798;6.430;2023-05-11T06:54:28;100122.72;;;16.27;65.08
19286;BME280;9776;50.798;6.430;2023-05-11T06:56:55;100112.44;;;16.24;64.68
19286;BME280;9776;50.798;6.430;2023-05-11T06:59:21;100115.22;;;16.16;64.89
19286;BME280;9776;50.798;6.430;2023-05-11T07:01:48;100120.28;;;16.11;65.29
19286;BME280;9776;50.798;6.430;2023-05-11T07:04:15;100128.47;;;16.10;65.06
19286;BME280;9776;50.798;6.430;2023-05-11T07:06:41;100118.59;;;16.04;65.40
19286;BME280;9776;50.798;6.430;2023-05-11T07:09:15;100118.59;;;16.04;65.31
19286;BME280;9776;50.798;6.430;2023-05-11T07:11:43;100123.38;;;15.94;65.75
19286;BME280;9776;50.798;6.430;2023-05-11T07:14:09;100122.06;;;15.83;65.67
19286;BME280;9776;50.798;6.430;2023-05-11T07:16:36;100122.69;;;15.85;65.67
19286;BME280;9776;50.798;6.430;2023-05-11T07:19:03;100122.50;;;15.86;65.75
19286;BME280;9776;50.798;6.430;2023-05-11T07:21:29;100121.19;;;15.97;65.36
19286;BME280;9776;50.798;6.430;2023-05-11T07:23:57;100128.84;;;16.07;65.24
19286;BME280;9776;50.798;6.430;2023-05-11T07:26:25;100120.50;;;16.10;65.00
19286;BME280;9776;50.798;6.430;2023-05-11T07:28:52;100126.00;;;16.08;65.22
19286;BME280;9776;50.798;6.430;2023-05-11T07:31:19;100130.44;;;16.01;65.33
19286;BME280;9776;50.798;6.430;2023-05-11T07:33:45;100123.38;;;15.94;65.63
19286;BME280;9776;50.798;6.430;2023-05-11T07:36:13;100123.75;;;15.90;65.41
19286;BME280;9776;50.798;6.430;2023-05-11T07:38:39;100126.53;;;15.82;65.74
19286;BME280;9776;50.798;6.430;2023-05-11T07:41:06;100130.88;;;15.83;65.96
19286;BME280;9776;50.798;6.430;2023-05-11T07:43:34;100136.56;;;16.02;65.68
19286;BME280;9776;50.798;6.430;2023-05-11T07:46:00;100141.22;;;16.14;65.73
19286;BME280;9776;50.798;6.430;2023-05-11T07:48:27;100133.16;;;16.29;65.60
19286;BME280;9776;50.798;6.430;2023-05-11T07:50:54;100132.47;;;16.41;65.39
19286;BME280;9776;50.798;6.430;2023-05-11T07:53:21;100129.16;;;16.39;65.27
19286;BME280;9776;50.798;6.430;2023-05-11T07:55:47;100142.44;;;16.33;65.58
19286;BME280;9776;50.798;6.430;2023-05-11T07:58:14;100138.09;;;16.32;65.54
19286;BME280;9776;50.798;6.430;2023-05-11T08:00:42;100133.00;;;16.30;65.62
19286;BME280;9776;50.798;6.430;2023-05-11T08:03:08;100130.13;;;16.32;65.85
19286;BME280;9776;50.798;6.430;2023-05-11T08:05:35;100137.72;;;16.35;65.57
19286;BME280;9776;50.798;6.430;2023-05-11T08:08:02;100130.66;;;16.48;65.52
19286;BME280;9776;50.798;6.430;2023-05-11T08:10:29;100133.41;;;16.76;64.88
19286;BME280;9776;50.798;6.430;2023-05-11T08:12:56;100137.03;;;17.03;64.37
19286;BME280;9776;50.798;6.430;2023-05-11T08:15:23;100134.47;;;17.16;64.09
19286;BME280;9776;50.798;6.430;2023-05-11T08:17:51;100137.59;;;17.20;63.99
19286;BME280;9776;50.798;6.430;2023-05-11T08:20:17;100141.59;;;17.02;64.06
19286;BME280;9776;50.798;6.430;2023-05-11T08:22:44;100142.03;;;16.78;64.71
19286;BME280;9776;50.798;6.430;2023-05-11T08:25:11;100145.41;;;16.66;64.73
19286;BME280;9776;50.798;6.430;2023-05-11T08:27:38;100144.00;;;16.70;64.38
19286;BME280;9776;50.798;6.430;2023-05-11T08:30:06;100145.06;;;16.75;64.42
19286;BME280;9776;50.798;6.430;2023-05-11T08:32:34;100151.09;;;16.84;64.06
19286;BME280;9776;50.798;6.430;2023-05-11T08:35:02;100148.03;;;16.87;63.95
19286;BME280;9776;50.798;6.430;2023-05-11T08:37:29;100146.03;;;16.95;63.50
19286;BME280;9776;50.798;6.430;2023-05-11T08:39:57;100148.97;;;17.07;63.29
19286;BME280;9776;50.798;6.430;2023-05-11T08:42:24;100151.69;;;17.14;63.05
19286;BME280;9776;50.798;6.430;2023-05-11T08:44:54;100147.88;;;17.29;62.82
19286;BME280;9776;50.798;6.430;2023-05-11T08:47:22;100151.84;;;17.40;62.40
19286;BME280;9776;50.798;6.430;2023-05-11T08:49:50;100154.53;;;17.46;62.08
19286;BME280;9776;50.798;6.430;2023-05-11T08:52:18;100159.28;;;17.51;61.63
19286;BME280;9776;50.798;6.430;2023-05-11T08:54:45;100157.41;;;17.45;61.78
19286;BME280;9776;50.798;6.430;2023-05-11T08:57:12;100159.84;;;17.40;61.89
19286;BME280;9776;50.798;6.430;2023-05-11T08:59:40;100154.69;;;17.38;61.89
19286;BME280;9776;50.798;6.430;2023-05-11T09:02:09;100152.47;;;17.42;61.50
19286;BME280;9776;50.798;6.430;2023-05-11T09:04:39;100157.84;;;17.48;61.34
19286;BME280;9776;50.798;6.430;2023-05-11T09:07:06;100155.34;;;17.47;61.24
19286;BME280;9776;50.798;6.430;2023-05-11T09:09:35;100150.06;;;17.53;61.06
19286;BME280;9776;50.798;6.430;2023-05-11T09:12:02;100156.69;;;17.64;60.82
19286;BME280;9776;50.798;6.430;2023-05-11T09:14:29;100151.25;;;17.85;59.80
19286;BME280;9776;50.798;6.430;2023-05-11T09:16:55;100157.44;;;17.99;59.52
19286;BME280;9776;50.798;6.430;2023-05-11T09:19:23;100151.91;;;18.07;59.27
19286;BME280;9776;50.798;6.430;2023-05-11T09:21:51;100148.47;;;18.33;58.41
19286;BME280;9776;50.798;6.430;2023-05-11T09:24:18;100147.66;;;18.45;58.15
19286;BME280;9776;50.798;6.430;2023-05-11T09:26:47;100149.56;;;18.58;57.74
19286;BME280;9776;50.798;6.430;2023-05-11T09:29:18;100148.31;;;18.60;57.51
19286;BME280;9776;50.798;6.430;2023-05-11T09:31:46;100138.44;;;18.81;56.97
19286;BME280;9776;50.798;6.430;2023-05-11T09:34:14;100146.84;;;18.97;56.54
19286;BME280;9776;50.798;6.430;2023-05-11T09:36:42;100145.13;;;19.29;55.74
19286;BME280;9776;50.798;6.430;2023-05-11T09:39:09;100142.38;;;19.62;54.90
19286;BME280;9776;50.798;6.430;2023-05-11T09:41:36;100139.38;;;19.83;54.27
19286;BME280;9776;50.798;6.430;2023-05-11T09:44:06;100145.97;;;19.87;54.03
19286;BME280;9776;50.798;6.430;2023-05-11T09:46:35;100141.00;;;19.91;53.96
19286;BME280;9776;50.798;6.430;2023-05-11T09:49:02;100135.41;;;19.99;53.79
19286;BME280;9776;50.798;6.430;2023-05-11T09:51:29;100133.97;;;19.96;53.69
19286;BME280;9776;50.798;6.430;2023-05-11T09:53:57;100136.78;;;20.08;53.33
19286;BME280;9776;50.798;6.430;2023-05-11T09:56:43;100134.97;;;20.02;53.24
19286;BME280;9776;50.798;6.430;2023-05-11T09:59:13;100136.28;;;20.17;52.77
19286;BME280;9776;50.798;6.430;2023-05-11T10:01:40;100137.09;;;20.24;52.67
19286;BME280;9776;50.798;6.430;2023-05-11T10:04:06;100138.06;;;20.36;52.48
19286;BME280;9776;50.798;6.430;2023-05-11T10:06:44;100139.38;;;20.52;51.83
19286;BME280;9776;50.798;6.430;2023-05-11T10:09:12;100135.34;;;20.68;51.46
19286;BME280;9776;50.798;6.430;2023-05-11T10:11:43;100142.78;;;20.66;51.53
19286;BME280;9776;50.798;6.430;2023-05-11T10:14:11;100143.38;;;20.43;51.64
19286;BME280;9776;50.798;6.430;2023-05-11T10:16:40;100137.75;;;20.51;51.06
19286;BME280;9776;50.798;6.430;2023-05-11T10:19:07;100130.78;;;20.44;51.43
19286;BME280;9776;50.798;6.430;2023-05-11T10:21:34;100137.81;;;20.45;51.41
19286;BME280;9776;50.798;6.430;2023-05-11T10:24:02;100135.38;;;20.36;51.44
19286;BME280;9776;50.798;6.430;2023-05-11T10:26:29;100131.72;;;20.31;51.37
19286;BME280;9776;50.798;6.430;2023-05-11T10:28:57;100133.41;;;20.25;51.59
19286;BME280;9776;50.798;6.430;2023-05-11T10:31:25;100125.56;;;20.17;51.43
19286;BME280;9776;50.798;6.430;2023-05-11T10:33:53;100136.28;;;20.17;51.37
19286;BME280;9776;50.798;6.430;2023-05-11T10:36:22;100130.78;;;20.12;51.52
19286;BME280;9776;50.798;6.430;2023-05-11T10:38:49;100130.13;;;20.17;51.49
19286;BME280;9776;50.798;6.430;2023-05-11T10:41:26;100130.44;;;20.02;51.43
19286;BME280;9776;50.798;6.430;2023-05-11T10:44:15;100134.84;;;19.83;51.72
19286;BME280;9776;50.798;6.430;2023-05-11T10:52:56;100132.56;;;19.36;52.17
19286;BME280;9776;50.798;6.430;2023-05-11T10:55:34;100135.06;;;19.24;52.34
19286;BME280;9776;50.798;6.430;2023-05-11T10:58:07;100135.72;;;19.00;52.92
19286;BME280;9776;50.798;6.430;2023-05-11T11:03:40;100127.53;;;18.56;53.85
19286;BME280;9776;50.798;6.430;2023-05-11T11:06:20;100137.78;;;18.39;54.12
19286;BME280;9776;50.798;6.430;2023-05-11T11:08:58;100135.75;;;18.35;54.01
19286;BME280;9776;50.798;6.430;2023-05-11T11:11:29;100130.59;;;18.27;54.56
19286;BME280;9776;50.798;6.430;2023-05-11T11:13:57;100133.03;;;18.15;54.67
19286;BME280;9776;50.798;6.430;2023-05-11T11:16:25;100136.50;;;18.15;54.69
19286;BME280;9776;50.798;6.430;2023-05-11T11:19:34;100135.25;;;17.98;55.16
19286;BME280;9776;50.798;6.430;2023-05-11T11:22:02;100127.25;;;18.05;55.20
19286;BME280;9776;50.798;6.430;2023-05-11T11:24:42;100136.31;;;18.10;54.74
19286;BME280;9776;50.798;6.430;2023-05-11T11:27:10;100126.88;;;18.28;54.66
19286;BME280;9776;50.798;6.430;2023-05-11T11:29:38;100131.19;;;18.42;54.03
19286;BME280;9776;50.798;6.430;2023-05-11T11:32:26;100120.50;;;18.42;53.92
19286;BME280;9776;50.798;6.430;2023-05-11T11:34:54;100126.94;;;18.67;53.61
19286;BME280;9776;50.798;6.430;2023-05-11T11:37:21;100125.69;;;18.83;53.66
19286;BME280;9776;50.798;6.430;2023-05-11T11:39:52;100126.03;;;19.12;53.14
19286;BME280;9776;50.798;6.430;2023-05-11T11:42:35;100121.94;;;19.10;53.15
19286;BME280;9776;50.798;6.430;2023-05-11T11:45:26;100130.78;;;19.04;53.21
19286;BME280;9776;50.798;6.430;2023-05-11T11:48:12;100128.94;;;18.98;53.70
19286;BME280;9776;50.798;6.430;2023-05-11T11:50:46;100121.13;;;18.96;53.71
19286;BME280;9776;50.798;6.430;2023-05-11T11:56:44;100122.41;;;18.87;53.82
19286;BME280;9776;50.798;6.430;2023-05-11T11:59:11;100128.34;;;18.83;54.17
19286;BME280;9776;50.798;6.430;2023-05-11T12:01:40;100123.41;;;18.73;54.76
19286;BME280;9776;50.798;6.430;2023-05-11T12:04:16;100119.53;;;18.62;54.99
19286;BME280;9776;50.798;6.430;2023-05-11T12:06:55;100127.06;;;18.33;55.79
19286;BME280;9776;50.798;6.430;2023-05-11T12:09:22;100127.91;;;18.20;56.48
19286;BME280;9776;50.798;6.430;2023-05-11T12:11:48;100122.75;;;18.19;56.78
19286;BME280;9776;50.798;6.430;2023-05-11T12:14:17;100121.53;;;18.28;56.65
19286;BME280;9776;50.798;6.430;2023-05-11T12:16:59;100124.19;;;18.14;56.83
19286;BME280;9776;50.798;6.430;2023-05-11T12:19:25;100112.47;;;18.15;56.71
19286;BME280;9776;50.798;6.430;2023-05-11T12:21:53;100117.84;;;18.29;56.82
19286;BME280;9776;50.798;6.430;2023-05-11T12:24:20;100111.91;;;18.53;55.74
19286;BME280;9776;50.798;6.430;2023-05-11T12:26:47;100114.56;;;18.86;54.92
19286;BME280;9776;50.798;6.430;2023-05-11T12:29:14;100113.28;;;19.14;54.11
19286;BME280;9776;50.798;6.430;2023-05-11T12:31:42;100112.66;;;19.12;54.00
19286;BME280;9776;50.798;6.430;2023-05-11T12:34:13;100108.75;;;19.02;54.03
19286;BME280;9776;50.798;6.430;2023-05-11T12:36:41;100106.31;;;19.07;53.83
19286;BME280;9776;50.798;6.430;2023-05-11T12:39:15;100107.47;;;19.31;53.42
19286;BME280;9776;50.798;6.430;2023-05-11T12:41:43;100107.44;;;19.37;53.44
19286;BME280;9776;50.798;6.430;2023-05-11T12:44:10;100103.97;;;19.30;53.48
19286;BME280;9776;50.798;6.430;2023-05-11T12:46:37;100103.97;;;19.23;53.46
19286;BME280;9776;50.798;6.430;2023-05-11T12:49:04;100100.47;;;19.23;53.76
19286;BME280;9776;50.798;6.430;2023-05-11T12:51:51;100101.31;;;19.23;53.63
19286;BME280;9776;50.798;6.430;2023-05-11T12:54:30;100099.63;;;19.36;53.42
19286;BME280;9776;50.798;6.430;2023-05-11T12:56:58;100096.28;;;19.53;53.30
19286;BME280;9776;50.798;6.430;2023-05-11T12:59:33;100089.03;;;19.60;53.02
19286;BME280;9776;50.798;6.430;2023-05-11T13:02:20;100093.13;;;19.69;52.97
19286;BME280;9776;50.798;6.430;2023-05-11T13:04:47;100090.31;;;19.89;52.46
19286;BME280;9776;50.798;6.430;2023-05-11T13:07:24;100089.19;;;20.03;51.97
19286;BME280;9776;50.798;6.430;2023-05-11T13:09:56;100092.97;;;20.27;51.53
19286;BME280;9776;50.798;6.430;2023-05-11T13:12:23;100083.25;;;20.32;51.50
19286;BME280;9776;50.798;6.430;2023-05-11T13:15:03;100080.28;;;20.41;51.02
19286;BME280;9776;50.798;6.430;2023-05-11T13:17:31;100080.34;;;20.59;50.86
19286;BME280;9776;50.798;6.430;2023-05-11T13:20:19;100089.78;;;20.86;50.07
19286;BME280;9776;50.798;6.430;2023-05-11T13:22:47;100080.41;;;20.95;49.76